createdAt,value
2023-05-16T00:00:49.005Z,99.90
2023-05-16T00:05:50.977Z,99.90
2023-05-16T00:10:52.726Z,99.90
2023-05-16T00:15:56.155Z,99.90
2023-05-16T00:20:58.183Z,99.90
2023-05-16T00:25:59.931Z,99.90
2023-05-16T00:31:01.687Z,99.90
2023-05-16T00:36:03.484Z,99.90
2023-05-16T00:41:05.666Z,99.90
2023-05-16T00:46:07.560Z,99.90
2023-05-16T00:51:11.179Z,99.90
2023-05-16T00:56:13.010Z,99.90
2023-05-16T01:01:14.987Z,99.90
2023-05-16T01:06:16.954Z,99.90
2023-05-16T01:11:31.232Z,99.90
2023-05-16T01:16:45.766Z,99.90
2023-05-16T01:21:48.416Z,99.90
2023-05-16T01:26:51.671Z,99.90
2023-05-16T01:31:53.553Z,99.90
2023-05-16T01:37:16.286Z,99.90
2023-05-16T01:42:21.491Z,99.90
2023-05-16T01:47:26.889Z,99.90
2023-05-16T01:52:36.506Z,99.90
2023-05-16T01:57:40.254Z,99.90
2023-05-16T02:02:42.093Z,99.90
2023-05-16T02:07:44.682Z,99.90
2023-05-16T02:12:46.455Z,99.90
2023-05-16T02:17:48.529Z,99.90
2023-05-16T02:22:51.116Z,99.90
2023-05-16T02:27:52.919Z,99.90
2023-05-16T02:32:54.804Z,99.90
2023-05-16T02:37:57.115Z,99.90
2023-05-16T02:42:59.818Z,99.90
2023-05-16T02:48:01.621Z,99.90
2023-05-16T02:53:03.490Z,99.90
2023-05-16T02:58:05.372Z,99.90
2023-05-16T03:03:07.545Z,99.90
2023-05-16T03:08:09.878Z,99.90
2023-05-16T03:13:11.722Z,99.90
2023-05-16T03:18:13.586Z,99.90
2023-05-16T03:23:15.459Z,99.90
2023-05-16T03:28:18.204Z,99.90
2023-05-16T03:33:20.245Z,99.90
2023-05-16T03:38:22.059Z,99.90
2023-05-16T03:43:23.761Z,99.90
2023-05-16T03:48:25.580Z,99.90
2023-05-16T03:53:27.612Z,99.90
2023-05-16T03:58:29.435Z,99.90
2023-05-16T04:03:31.418Z,99.90
2023-05-16T04:08:33.373Z,99.90
2023-05-16T04:13:35.148Z,99.90
2023-05-16T04:18:36.945Z,99.90
2023-05-16T04:23:38.713Z,99.90
2023-05-16T04:28:41.685Z,99.90
2023-05-16T04:33:43.523Z,99.90
2023-05-16T04:38:47.164Z,99.90
2023-05-16T04:43:49.019Z,99.90
2023-05-16T04:48:52.104Z,99.90
2023-05-16T04:53:53.908Z,99.90
2023-05-16T04:58:55.786Z,99.90
2023-05-16T05:03:57.556Z,99.90
2023-05-16T05:08:59.432Z,99.90
2023-05-16T05:14:02.327Z,99.90
2023-05-16T05:19:04.664Z,99.90
2023-05-16T05:24:06.703Z,99.90
2023-05-16T05:29:08.858Z,99.90
2023-05-16T05:34:10.757Z,99.90
2023-05-16T05:39:12.659Z,99.90
2023-05-16T05:44:14.412Z,99.90
2023-05-16T05:49:16.692Z,99.90
2023-05-16T05:54:19.636Z,99.90
2023-05-16T05:59:21.542Z,99.90
2023-05-16T06:04:23.329Z,99.90
2023-05-16T06:09:25.060Z,99.90
2023-05-16T06:14:26.805Z,99.90
2023-05-16T06:19:28.595Z,99.90
2023-05-16T06:24:30.576Z,99.90
2023-05-16T06:29:32.491Z,99.90
2023-05-16T06:34:34.259Z,99.90
2023-05-16T06:39:36.011Z,99.90
2023-05-16T06:44:37.785Z,99.90
2023-05-16T06:49:39.553Z,99.90
2023-05-16T06:54:41.347Z,99.90
2023-05-16T06:59:43.549Z,99.90
2023-05-16T07:04:45.654Z,99.90
2023-05-16T07:09:47.433Z,99.90
2023-05-16T07:14:49.222Z,99.90
2023-05-16T07:19:51.091Z,99.90
2023-05-16T07:24:57.074Z,99.90
2023-05-16T07:29:58.962Z,99.90
2023-05-16T07:35:00.732Z,99.90
2023-05-16T07:40:03.816Z,99.90
2023-05-16T07:45:07.686Z,99.90
2023-05-16T07:50:10.667Z,99.90
2023-05-16T07:55:12.563Z,99.90
2023-05-16T08:00:15.119Z,99.90
2023-05-16T08:05:17.216Z,99.90
2023-05-16T08:10:19.115Z,99.90
2023-05-16T08:15:21.652Z,99.90
2023-05-16T08:20:23.475Z,99.90
2023-05-16T08:25:25.694Z,99.90
2023-05-16T08:30:28.301Z,99.90
2023-05-16T08:35:30.350Z,99.90
2023-05-16T08:40:32.163Z,98.40
2023-05-16T08:45:34.200Z,98.60
2023-05-16T08:50:36.487Z,99.40
2023-05-16T08:55:39.521Z,99.90
2023-05-16T09:00:41.812Z,99.90
2023-05-16T09:05:43.738Z,99.90
2023-05-16T09:10:45.549Z,99.90
2023-05-16T09:16:17.345Z,99.90
2023-05-16T09:21:19.887Z,99.90
2023-05-16T09:26:22.740Z,99.90
2023-05-16T09:31:37.909Z,99.90
2023-05-16T09:36:42.112Z,99.90
2023-05-16T09:41:45.521Z,99.90
2023-05-16T09:46:47.387Z,99.90
2023-05-16T09:51:49.287Z,99.90
2023-05-16T09:56:52.754Z,99.90
2023-05-16T10:01:57.340Z,99.90
2023-05-16T10:07:03.342Z,99.30
2023-05-16T10:12:08.568Z,98.90
2023-05-16T10:17:14.362Z,99.20
2023-05-16T10:22:17.061Z,99.60
2023-05-16T10:27:21.169Z,99.00
2023-05-16T10:32:25.503Z,99.10
2023-05-16T10:37:28.104Z,98.60
2023-05-16T10:42:32.814Z,98.60
2023-05-16T10:47:34.827Z,99.30
2023-05-16T10:52:36.665Z,99.30
2023-05-16T10:57:39.267Z,98.80
2023-05-16T11:02:41.839Z,98.90
2023-05-16T11:07:44.289Z,99.00
2023-05-16T11:12:51.294Z,98.50
2023-05-16T11:18:06.966Z,98.00
2023-05-16T11:23:21.796Z,97.00
2023-05-16T11:28:27.737Z,96.70
2023-05-16T11:33:34.318Z,96.90
2023-05-16T11:38:37.072Z,96.90
2023-05-16T11:43:44.776Z,97.50
2023-05-16T11:48:47.362Z,97.70
2023-05-16T11:53:53.243Z,98.20
2023-05-16T11:58:55.157Z,98.60
2023-05-16T12:03:58.076Z,99.40
2023-05-16T12:09:03.038Z,99.50
2023-05-16T12:14:10.253Z,99.40
2023-05-16T12:19:12.509Z,99.00
2023-05-16T12:24:14.616Z,98.00
2023-05-16T12:29:16.528Z,97.10
2023-05-16T12:34:21.314Z,97.20
2023-05-16T12:39:23.376Z,98.00
2023-05-16T12:44:30.231Z,97.90
2023-05-16T12:49:33.423Z,98.20
2023-05-16T12:54:35.381Z,98.00
2023-05-16T12:59:37.411Z,97.90
2023-05-16T13:04:39.170Z,97.70
2023-05-16T13:09:41.825Z,97.90
2023-05-16T13:14:44.046Z,98.40
2023-05-16T13:19:48.253Z,97.90
2023-05-16T13:24:50.757Z,98.10
2023-05-16T13:29:52.491Z,98.20
2023-05-16T13:34:55.147Z,97.10
2023-05-16T13:39:57.094Z,95.80
2023-05-16T13:44:58.884Z,95.10
2023-05-16T13:50:06.016Z,94.00
2023-05-16T13:55:08.593Z,93.00
2023-05-16T14:05:18.507Z,92.10
2023-05-16T14:10:20.313Z,93.00
2023-05-16T14:15:22.196Z,93.70
2023-05-16T14:20:23.984Z,94.00
2023-05-16T14:25:26.027Z,93.80
2023-05-16T14:30:28.202Z,92.80
2023-05-16T14:35:31.269Z,91.10
2023-05-16T14:40:34.238Z,91.50
2023-05-16T14:45:37.079Z,91.10
2023-05-16T14:50:38.868Z,91.10
2023-05-16T14:55:40.872Z,91.60
2023-05-16T15:00:42.641Z,92.30
2023-05-16T15:05:45.190Z,92.20
2023-05-16T15:10:47.088Z,92.90
2023-05-16T15:15:48.932Z,93.10
2023-05-16T15:20:53.078Z,92.30
2023-05-16T15:25:55.366Z,91.40
2023-05-16T15:30:57.137Z,91.60
2023-05-16T15:35:59.007Z,91.60
2023-05-16T15:41:16.531Z,91.50
2023-05-16T15:46:22.715Z,90.30
2023-05-16T15:51:24.598Z,89.60
2023-05-16T15:56:26.453Z,89.00
2023-05-16T16:01:28.309Z,85.90
2023-05-16T16:06:30.205Z,85.20
2023-05-16T16:11:32.133Z,84.50
2023-05-16T16:16:34.158Z,86.00
2023-05-16T16:21:37.222Z,85.10
2023-05-16T16:26:39.015Z,83.00
2023-05-16T16:31:40.941Z,82.60
2023-05-16T16:36:42.723Z,83.70
2023-05-16T16:41:44.540Z,85.10
2023-05-16T16:46:46.520Z,81.70
2023-05-16T16:51:49.972Z,83.10
2023-05-16T16:56:52.537Z,81.20
2023-05-16T17:01:54.456Z,82.10
2023-05-16T17:06:56.510Z,82.80
2023-05-16T17:11:58.315Z,82.40
2023-05-16T17:17:00.140Z,82.10
2023-05-16T17:22:02.328Z,82.10
2023-05-16T17:27:04.798Z,82.10
2023-05-16T17:32:06.949Z,82.10
2023-05-16T17:37:10.781Z,84.20
2023-05-16T17:42:12.744Z,82.90
2023-05-16T17:47:14.740Z,84.60
2023-05-16T17:52:16.583Z,83.60
2023-05-16T17:57:18.761Z,84.00
2023-05-16T18:02:20.648Z,86.00
2023-05-16T18:07:22.734Z,85.90
2023-05-16T18:12:24.847Z,86.30
2023-05-16T18:17:26.595Z,86.80
2023-05-16T18:22:28.361Z,87.70
2023-05-16T18:27:30.146Z,88.80
2023-05-16T18:32:32.309Z,89.00
2023-05-16T18:37:34.359Z,88.60
2023-05-16T18:42:36.188Z,88.40
2023-05-16T18:47:38.142Z,88.30
2023-05-16T18:52:40.690Z,88.40
2023-05-16T18:57:44.008Z,88.00
2023-05-16T19:02:46.419Z,89.10
2023-05-16T19:07:48.372Z,90.20
2023-05-16T19:12:50.334Z,90.00
2023-05-16T19:17:52.237Z,90.00
2023-05-16T19:22:54.009Z,90.30
2023-05-16T19:27:55.807Z,90.50
2023-05-16T19:32:57.688Z,90.90
2023-05-16T19:38:00.066Z,90.90
2023-05-16T19:43:01.925Z,91.40
2023-05-16T19:48:04.195Z,91.30
2023-05-16T19:53:06.134Z,91.50
2023-05-16T19:58:08.176Z,91.60
2023-05-16T20:03:10.047Z,91.70
2023-05-16T20:08:12.234Z,92.30
2023-05-16T20:13:18.282Z,92.80
2023-05-16T20:18:20.235Z,94.20
2023-05-16T20:23:22.052Z,94.20
2023-05-16T20:28:23.814Z,95.20
2023-05-16T20:33:25.867Z,95.50
2023-05-16T20:38:27.881Z,96.70
2023-05-16T20:43:29.664Z,97.20
2023-05-16T20:48:31.498Z,97.90
2023-05-16T20:53:33.375Z,98.10
2023-05-16T20:58:35.249Z,97.90
2023-05-16T21:03:37.079Z,98.30
2023-05-16T21:08:39.245Z,98.60
2023-05-16T21:13:41.032Z,99.00
2023-05-16T21:18:43.020Z,99.00
2023-05-16T21:23:45.036Z,99.20
2023-05-16T21:33:53.271Z,99.70
2023-05-16T21:38:55.061Z,99.90
2023-05-16T21:43:56.818Z,99.90
2023-05-16T21:48:59.741Z,99.90
2023-05-16T21:54:03.116Z,99.90
2023-05-16T21:59:05.056Z,99.90
2023-05-16T22:04:06.990Z,99.90
2023-05-16T22:09:08.994Z,99.90
2023-05-16T22:14:10.946Z,99.90
2023-05-16T22:19:12.842Z,99.90
2023-05-16T22:24:14.651Z,99.90
2023-05-16T22:29:16.444Z,99.90
2023-05-16T22:34:18.324Z,99.90
2023-05-16T22:39:20.099Z,99.90
2023-05-16T22:44:22.028Z,99.90
2023-05-16T22:49:24.166Z,99.90
2023-05-16T22:54:26.014Z,99.90
2023-05-16T22:59:27.791Z,99.90
2023-05-16T23:04:29.667Z,99.90
2023-05-16T23:09:31.694Z,99.90
2023-05-16T23:14:33.494Z,99.90
2023-05-16T23:19:35.510Z,99.90
2023-05-16T23:24:37.385Z,99.90
2023-05-16T23:29:39.156Z,99.90
2023-05-16T23:34:41.145Z,99.90
2023-05-16T23:39:43.225Z,99.90
2023-05-16T23:44:45.105Z,99.90
2023-05-16T23:49:46.865Z,99.90
2023-05-16T23:54:48.895Z,99.90
2023-05-16T23:59:50.618Z,99.90
